createdAt,value
2023-02-12T00:02:01.156Z,99.90
2023-02-12T00:04:29.916Z,99.90
2023-02-12T00:06:58.728Z,99.90
2023-02-12T00:09:27.562Z,99.90
2023-02-12T00:11:56.304Z,99.90
2023-02-12T00:14:25.187Z,99.90
2023-02-12T00:16:55.348Z,99.90
2023-02-12T00:19:24.281Z,99.90
2023-02-12T00:21:53.119Z,99.90
2023-02-12T00:24:21.960Z,99.90
2023-02-12T00:26:51.154Z,99.90
2023-02-12T00:29:19.836Z,99.90
2023-02-12T00:31:48.821Z,99.90
2023-02-12T00:34:19.378Z,99.90
2023-02-12T00:36:48.119Z,99.90
2023-02-12T00:39:16.937Z,99.90
2023-02-12T00:41:45.706Z,99.90
2023-02-12T00:44:14.602Z,99.90
2023-02-12T00:46:43.417Z,99.90
2023-02-12T00:49:12.224Z,99.90
2023-02-12T00:51:42.733Z,99.90
2023-02-12T00:54:11.569Z,99.90
2023-02-12T00:56:40.250Z,99.90
2023-02-12T00:59:09.531Z,99.90
2023-02-12T01:01:38.229Z,99.90
2023-02-12T01:04:07.582Z,99.90
2023-02-12T01:06:36.336Z,99.90
2023-02-12T01:09:06.550Z,99.90
2023-02-12T01:11:35.395Z,99.90
2023-02-12T01:14:04.629Z,99.90
2023-02-12T01:16:36.684Z,99.90
2023-02-12T01:19:06.339Z,99.90
2023-02-12T01:21:36.500Z,99.90
2023-02-12T01:24:07.589Z,99.90
2023-02-12T01:26:36.495Z,99.90
2023-02-12T01:29:08.789Z,99.90
2023-02-12T01:31:40.661Z,99.90
2023-02-12T01:34:11.922Z,99.90
2023-02-12T01:36:40.961Z,99.90
2023-02-12T01:39:13.516Z,99.90
2023-02-12T01:41:45.878Z,99.90
2023-02-12T01:44:21.116Z,99.90
2023-02-12T01:46:52.156Z,99.90
2023-02-12T01:49:25.221Z,99.90
2023-02-12T01:52:00.304Z,99.90
2023-02-12T01:54:31.764Z,99.90
2023-02-12T01:57:02.347Z,99.90
2023-02-12T01:59:32.621Z,99.90
2023-02-12T02:02:01.505Z,99.90
2023-02-12T02:04:36.101Z,99.90
2023-02-12T02:07:08.912Z,99.90
2023-02-12T02:09:41.562Z,99.90
2023-02-12T02:12:27.941Z,99.90
2023-02-12T02:15:01.162Z,99.90
2023-02-12T02:17:55.630Z,99.90
2023-02-12T02:20:50.033Z,99.90
2023-02-12T02:24:18.729Z,99.90
2023-02-12T02:27:18.103Z,99.90
2023-02-12T02:30:24.141Z,99.90
2023-02-12T02:33:05.889Z,99.90
2023-02-12T02:35:46.963Z,99.90
2023-02-12T02:38:29.619Z,99.90
2023-02-12T02:41:07.249Z,99.90
2023-02-12T02:43:42.067Z,99.90
2023-02-12T02:46:19.701Z,99.90
2023-02-12T02:48:54.870Z,99.90
2023-02-12T02:51:30.762Z,99.90
2023-02-12T02:54:07.051Z,99.90
2023-02-12T02:56:40.390Z,99.90
2023-02-12T02:59:14.928Z,99.90
2023-02-12T03:01:51.354Z,99.90
2023-02-12T03:04:29.744Z,99.90
2023-02-12T03:07:04.876Z,99.90
2023-02-12T03:09:41.284Z,99.90
2023-02-12T03:12:17.914Z,99.90
2023-02-12T03:14:55.557Z,99.90
2023-02-12T03:17:32.874Z,99.90
2023-02-12T03:20:09.689Z,99.90
2023-02-12T03:22:43.542Z,99.90
2023-02-12T03:25:17.708Z,99.90
2023-02-12T03:27:53.880Z,99.90
2023-02-12T03:30:23.084Z,99.90
2023-02-12T03:33:08.176Z,99.90
2023-02-12T03:35:45.505Z,99.90
2023-02-12T03:38:25.765Z,99.90
2023-02-12T03:41:01.635Z,99.90
2023-02-12T03:43:38.106Z,99.90
2023-02-12T03:46:18.964Z,99.90
2023-02-12T03:49:00.715Z,99.90
2023-02-12T03:51:37.660Z,99.90
2023-02-12T03:54:10.834Z,99.90
2023-02-12T03:56:45.714Z,99.90
2023-02-12T03:59:14.683Z,99.90
2023-02-12T04:01:43.651Z,99.90
2023-02-12T04:04:14.651Z,99.90
2023-02-12T04:06:43.690Z,99.90
2023-02-12T04:09:15.246Z,99.90
2023-02-12T04:12:03.965Z,99.90
2023-02-12T04:14:45.235Z,99.90
2023-02-12T04:17:33.786Z,99.90
2023-02-12T04:20:19.683Z,99.90
2023-02-12T04:23:01.439Z,99.90
2023-02-12T04:25:46.431Z,99.90
2023-02-12T04:28:29.540Z,99.90
2023-02-12T04:31:05.037Z,99.90
2023-02-12T04:33:50.160Z,99.90
2023-02-12T04:36:27.864Z,99.90
2023-02-12T04:39:03.642Z,99.90
2023-02-12T04:41:33.404Z,99.90
2023-02-12T04:44:20.980Z,99.90
2023-02-12T04:46:49.893Z,99.90
2023-02-12T04:49:21.982Z,99.90
2023-02-12T04:51:53.869Z,99.90
2023-02-12T04:54:25.211Z,99.90
2023-02-12T04:56:54.275Z,99.90
2023-02-12T04:59:23.094Z,99.90
2023-02-12T05:01:52.033Z,99.90
2023-02-12T05:04:21.273Z,99.90
2023-02-12T05:06:51.432Z,99.90
2023-02-12T05:09:21.888Z,99.90
2023-02-12T05:11:50.645Z,99.90
2023-02-12T05:14:19.381Z,99.90
2023-02-12T05:16:48.126Z,99.90
2023-02-12T05:19:17.012Z,99.90
2023-02-12T05:21:45.801Z,99.90
2023-02-12T05:24:15.918Z,99.90
2023-02-12T05:26:44.787Z,99.90
2023-02-12T05:29:13.593Z,99.90
2023-02-12T05:31:42.396Z,99.90
2023-02-12T05:34:13.204Z,99.90
2023-02-12T05:36:42.261Z,99.90
2023-02-12T05:39:12.038Z,99.90
2023-02-12T05:41:42.210Z,99.90
2023-02-12T05:44:12.542Z,99.90
2023-02-12T05:46:41.326Z,99.90
2023-02-12T05:49:10.162Z,99.90
2023-02-12T05:51:39.650Z,99.90
2023-02-12T05:54:09.237Z,99.90
2023-02-12T05:56:43.463Z,99.90
2023-02-12T05:59:17.220Z,99.90
2023-02-12T06:01:48.039Z,99.90
2023-02-12T06:04:19.801Z,99.90
2023-02-12T06:06:48.882Z,99.90
2023-02-12T06:09:17.912Z,99.90
2023-02-12T06:11:48.245Z,99.90
2023-02-12T06:14:19.872Z,99.90
2023-02-12T06:16:50.621Z,99.90
2023-02-12T06:19:21.373Z,99.90
2023-02-12T06:21:50.231Z,99.90
2023-02-12T06:24:19.965Z,99.90
2023-02-12T06:26:52.516Z,99.90
2023-02-12T06:29:23.837Z,99.90
2023-02-12T06:31:52.874Z,99.90
2023-02-12T06:34:21.716Z,99.90
2023-02-12T06:36:50.527Z,99.90
2023-02-12T06:39:19.470Z,99.90
2023-02-12T06:41:49.691Z,99.90
2023-02-12T06:44:18.504Z,99.90
2023-02-12T06:46:47.294Z,99.90
2023-02-12T06:49:16.721Z,99.90
2023-02-12T06:51:45.518Z,99.90
2023-02-12T06:54:16.868Z,99.90
2023-02-12T06:56:45.964Z,99.90
2023-02-12T06:59:18.320Z,99.90
2023-02-12T07:01:47.145Z,99.90
2023-02-12T07:04:16.222Z,99.90
2023-02-12T07:06:45.016Z,99.90
2023-02-12T07:09:13.865Z,99.90
2023-02-12T07:11:42.667Z,99.90
2023-02-12T07:14:18.021Z,99.90
2023-02-12T07:16:46.977Z,99.90
2023-02-12T07:19:17.048Z,99.90
2023-02-12T07:21:45.937Z,99.90
2023-02-12T07:24:33.401Z,99.90
2023-02-12T07:27:02.205Z,99.90
2023-02-12T07:29:32.554Z,99.90
2023-02-12T07:32:01.990Z,99.90
2023-02-12T07:34:30.768Z,99.90
2023-02-12T07:36:59.599Z,99.90
2023-02-12T07:39:28.410Z,99.90
2023-02-12T07:41:58.356Z,99.90
2023-02-12T07:44:27.123Z,99.90
2023-02-12T07:46:57.366Z,99.90
2023-02-12T07:49:26.170Z,99.90
2023-02-12T07:51:56.858Z,99.90
2023-02-12T07:54:25.538Z,99.90
2023-02-12T07:56:54.407Z,99.90
2023-02-12T07:59:23.388Z,99.90
2023-02-12T08:01:54.186Z,99.90
2023-02-12T08:04:27.132Z,99.70
2023-02-12T08:06:57.909Z,98.70
2023-02-12T08:09:30.986Z,97.60
2023-02-12T08:11:59.795Z,96.80
2023-02-12T08:14:29.190Z,95.80
2023-02-12T08:16:58.045Z,95.30
2023-02-12T08:19:28.459Z,94.70
2023-02-12T08:21:58.484Z,94.30
2023-02-12T08:24:27.918Z,93.20
2023-02-12T08:26:57.979Z,96.40
2023-02-12T08:29:30.289Z,94.20
2023-02-12T08:32:01.709Z,92.30
2023-02-12T08:34:34.998Z,90.70
2023-02-12T08:37:06.513Z,90.20
2023-02-12T08:39:35.787Z,90.30
2023-02-12T08:42:04.936Z,91.50
2023-02-12T08:44:34.122Z,93.20
2023-02-12T08:47:03.004Z,88.80
2023-02-12T08:49:33.301Z,82.80
2023-02-12T08:52:03.257Z,79.90
2023-02-12T08:54:33.632Z,80.60
2023-02-12T08:57:04.674Z,80.60
2023-02-12T08:59:33.826Z,79.80
2023-02-12T09:02:04.416Z,78.60
2023-02-12T09:04:36.115Z,81.60
2023-02-12T09:07:04.817Z,83.10
2023-02-12T09:09:34.338Z,82.90
2023-02-12T09:12:03.202Z,80.90
2023-02-12T09:14:31.944Z,83.30
2023-02-12T09:17:00.826Z,79.10
2023-02-12T09:19:29.556Z,77.20
2023-02-12T09:21:59.795Z,73.70
2023-02-12T09:24:28.760Z,72.10
2023-02-12T09:26:57.813Z,74.10
2023-02-12T09:29:26.783Z,71.30
2023-02-12T09:31:55.705Z,71.00
2023-02-12T09:34:24.645Z,72.40
2023-02-12T09:36:53.375Z,71.80
2023-02-12T09:39:24.180Z,71.40
2023-02-12T09:42:37.147Z,70.10
2023-02-12T09:45:18.169Z,65.60
2023-02-12T09:47:56.530Z,65.10
2023-02-12T09:50:38.814Z,65.60
2023-02-12T09:53:10.070Z,66.00
2023-02-12T09:55:41.774Z,62.90
2023-02-12T09:58:21.420Z,64.80
2023-02-12T10:00:50.170Z,67.90
2023-02-12T10:03:19.928Z,65.60
2023-02-12T10:05:55.326Z,66.30
2023-02-12T10:09:06.057Z,63.90
2023-02-12T10:11:56.811Z,64.10
2023-02-12T10:14:59.994Z,62.40
2023-02-12T10:17:43.189Z,61.70
2023-02-12T10:20:55.352Z,60.60
2023-02-12T10:23:47.261Z,61.30
2023-02-12T10:26:25.872Z,62.80
2023-02-12T10:29:01.519Z,63.50
2023-02-12T10:31:36.290Z,65.10
2023-02-12T10:34:17.881Z,64.30
2023-02-12T10:36:49.220Z,63.80
2023-02-12T10:39:25.389Z,66.50
2023-02-12T10:42:04.108Z,66.30
2023-02-12T10:44:34.351Z,67.90
2023-02-12T10:47:03.568Z,66.50
2023-02-12T10:49:34.351Z,65.80
2023-02-12T10:52:14.384Z,65.30
2023-02-12T10:54:45.950Z,66.10
2023-02-12T10:57:22.985Z,65.10
2023-02-12T10:59:57.205Z,65.10
2023-02-12T11:02:31.926Z,64.60
2023-02-12T11:05:16.900Z,63.10
2023-02-12T11:07:50.939Z,66.00
2023-02-12T11:10:23.573Z,64.40
2023-02-12T11:12:52.424Z,64.20
2023-02-12T11:15:28.434Z,63.60
2023-02-12T11:18:00.978Z,63.80
2023-02-12T11:20:34.708Z,65.00
2023-02-12T11:23:07.259Z,65.50
2023-02-12T11:25:39.752Z,65.40
2023-02-12T11:28:17.991Z,66.30
2023-02-12T11:30:58.382Z,64.90
2023-02-12T11:33:34.795Z,64.50
2023-02-12T11:36:16.025Z,64.10
2023-02-12T11:38:54.546Z,63.70
2023-02-12T11:41:34.627Z,63.30
2023-02-12T11:44:10.601Z,64.00
2023-02-12T11:46:47.434Z,63.60
2023-02-12T11:49:24.194Z,63.40
2023-02-12T11:51:54.250Z,61.40
2023-02-12T11:54:28.136Z,60.00
2023-02-12T11:56:57.084Z,59.60
2023-02-12T11:59:38.733Z,60.30
2023-02-12T12:02:28.861Z,62.10
2023-02-12T12:05:14.888Z,61.70
2023-02-12T12:07:52.229Z,61.80
2023-02-12T12:10:32.897Z,61.50
2023-02-12T12:13:07.027Z,61.00
2023-02-12T12:16:00.575Z,61.00
2023-02-12T12:19:02.197Z,61.20
2023-02-12T12:21:44.019Z,60.60
2023-02-12T12:24:21.655Z,60.20
2023-02-12T12:27:03.383Z,60.20
2023-02-12T12:29:53.118Z,59.80
2023-02-12T12:32:25.973Z,61.10
2023-02-12T12:34:56.381Z,60.10
2023-02-12T12:37:38.831Z,61.10
2023-02-12T12:40:43.747Z,61.20
2023-02-12T12:43:24.654Z,60.10
2023-02-12T12:46:26.624Z,60.00
2023-02-12T12:49:35.994Z,60.00
2023-02-12T12:52:38.178Z,60.40
2023-02-12T12:55:46.353Z,61.10
2023-02-12T12:58:29.898Z,60.60
2023-02-12T13:01:37.452Z,61.00
2023-02-12T13:04:47.198Z,61.30
2023-02-12T13:07:36.673Z,61.60
2023-02-12T13:10:21.926Z,62.30
2023-02-12T13:13:23.365Z,63.80
2023-02-12T13:16:02.451Z,64.70
2023-02-12T13:19:10.331Z,64.30
2023-02-12T13:22:00.112Z,63.30
2023-02-12T13:24:45.098Z,63.70
2023-02-12T13:27:20.309Z,64.60
2023-02-12T13:29:56.260Z,64.80
2023-02-12T13:32:31.416Z,65.40
2023-02-12T13:35:02.107Z,65.90
2023-02-12T13:37:39.967Z,65.50
2023-02-12T13:40:19.515Z,66.10
2023-02-12T13:42:57.387Z,64.70
2023-02-12T13:45:45.603Z,63.00
2023-02-12T13:48:38.216Z,64.40
2023-02-12T13:51:22.754Z,67.00
2023-02-12T13:54:14.696Z,67.80
2023-02-12T13:56:48.660Z,67.20
2023-02-12T13:59:48.938Z,67.80
2023-02-12T14:02:52.159Z,66.70
2023-02-12T14:05:32.140Z,65.90
2023-02-12T14:08:06.018Z,65.70
2023-02-12T14:10:40.850Z,66.10
2023-02-12T14:13:25.206Z,66.20
2023-02-12T14:15:58.017Z,66.70
2023-02-12T14:18:35.000Z,67.40
2023-02-12T14:21:43.266Z,68.10
2023-02-12T14:24:52.111Z,68.30
2023-02-12T14:27:43.365Z,68.50
2023-02-12T14:30:39.018Z,69.30
2023-02-12T14:33:28.165Z,69.30
2023-02-12T14:36:19.811Z,69.10
2023-02-12T14:39:06.087Z,68.10
2023-02-12T14:41:38.904Z,69.60
2023-02-12T14:44:48.210Z,69.80
2023-02-12T14:47:55.445Z,69.10
2023-02-12T14:50:37.459Z,68.70
2023-02-12T14:53:23.251Z,69.00
2023-02-12T14:55:54.096Z,69.70
2023-02-12T14:58:27.074Z,71.00
2023-02-12T15:00:59.186Z,71.70
2023-02-12T15:03:40.523Z,72.20
2023-02-12T15:06:17.631Z,72.50
2023-02-12T15:08:54.254Z,73.00
2023-02-12T15:11:38.162Z,73.50
2023-02-12T15:14:14.619Z,74.10
2023-02-12T15:17:00.246Z,74.20
2023-02-12T15:19:55.535Z,74.70
2023-02-12T15:22:32.387Z,75.30
2023-02-12T15:25:16.567Z,75.90
2023-02-12T15:27:47.482Z,76.30
2023-02-12T15:30:25.870Z,76.80
2023-02-12T15:32:57.994Z,77.00
2023-02-12T15:35:32.490Z,77.10
2023-02-12T15:38:02.522Z,77.80
2023-02-12T15:40:33.025Z,77.60
2023-02-12T15:43:18.250Z,78.10
2023-02-12T15:45:54.315Z,78.80
2023-02-12T15:48:29.918Z,79.50
2023-02-12T15:51:10.863Z,80.80
2023-02-12T15:53:41.787Z,81.80
2023-02-12T15:56:16.697Z,82.00
2023-02-12T15:58:52.446Z,82.70
2023-02-12T16:01:24.091Z,84.10
2023-02-12T16:03:55.566Z,85.70
2023-02-12T16:06:29.283Z,85.80
2023-02-12T16:09:04.453Z,85.80
2023-02-12T16:11:35.746Z,85.60
2023-02-12T16:14:10.277Z,86.00
2023-02-12T16:16:49.964Z,86.30
2023-02-12T16:19:23.418Z,87.10
2023-02-12T16:22:01.505Z,88.10
2023-02-12T16:24:34.926Z,89.10
2023-02-12T16:27:17.936Z,90.10
2023-02-12T16:29:50.517Z,90.20
2023-02-12T16:32:37.351Z,90.20
2023-02-12T16:35:26.234Z,90.50
2023-02-12T16:38:03.866Z,90.40
2023-02-12T16:40:37.992Z,90.30
2023-02-12T16:43:27.809Z,90.30
2023-02-12T16:46:07.601Z,90.50
2023-02-12T16:48:42.810Z,90.90
2023-02-12T16:51:25.586Z,91.20
2023-02-12T16:53:57.911Z,91.40
2023-02-12T16:56:29.481Z,91.40
2023-02-12T16:59:00.596Z,91.80
2023-02-12T17:01:33.519Z,92.30
2023-02-12T17:04:10.296Z,92.60
2023-02-12T17:06:39.122Z,93.50
2023-02-12T17:09:09.332Z,94.00
2023-02-12T17:11:38.166Z,94.20
2023-02-12T17:14:06.915Z,94.50
2023-02-12T17:16:36.029Z,94.90
2023-02-12T17:19:05.010Z,95.20
2023-02-12T17:21:38.429Z,95.80
2023-02-12T17:24:19.998Z,96.20
2023-02-12T17:26:50.680Z,97.70
2023-02-12T17:29:20.166Z,98.40
2023-02-12T17:31:49.508Z,99.00
2023-02-12T17:34:18.616Z,99.50
2023-02-12T17:36:47.595Z,99.90
2023-02-12T17:39:19.373Z,99.90
2023-02-12T17:41:49.100Z,99.90
2023-02-12T17:44:17.899Z,99.90
2023-02-12T17:46:46.760Z,99.90
2023-02-12T17:49:15.632Z,99.90
2023-02-12T17:51:44.392Z,99.90
2023-02-12T17:54:14.018Z,99.90
2023-02-12T17:56:44.238Z,99.90
2023-02-12T17:59:13.675Z,99.90
2023-02-12T18:01:42.680Z,99.90
2023-02-12T18:04:11.638Z,99.90
2023-02-12T18:06:40.490Z,99.90
2023-02-12T18:09:09.494Z,99.90
2023-02-12T18:11:40.392Z,99.90
2023-02-12T18:14:12.862Z,99.90
2023-02-12T18:16:44.750Z,99.90
2023-02-12T18:19:13.707Z,99.90
2023-02-12T18:21:42.567Z,99.90
2023-02-12T18:24:11.931Z,99.90
2023-02-12T18:26:40.674Z,99.90
2023-02-12T18:29:11.560Z,99.90
2023-02-12T18:31:40.581Z,99.90
2023-02-12T18:34:10.284Z,99.90
2023-02-12T18:36:39.160Z,99.90
2023-02-12T18:39:07.936Z,99.90
2023-02-12T18:41:36.967Z,99.90
2023-02-12T18:44:06.103Z,99.90
2023-02-12T18:46:36.339Z,99.90
2023-02-12T18:49:06.939Z,99.90
2023-02-12T18:51:39.931Z,99.90
2023-02-12T18:54:12.971Z,99.90
2023-02-12T18:56:44.598Z,99.90
2023-02-12T18:59:16.087Z,99.90
2023-02-12T19:01:47.489Z,99.90
2023-02-12T19:04:19.859Z,99.90
2023-02-12T19:06:51.426Z,99.90
2023-02-12T19:09:24.377Z,99.90
2023-02-12T19:11:59.050Z,99.90
2023-02-12T19:14:29.081Z,99.90
2023-02-12T19:16:59.370Z,99.90
2023-02-12T19:19:29.538Z,99.90
2023-02-12T19:22:04.243Z,99.90
2023-02-12T19:24:45.863Z,99.90
2023-02-12T19:27:15.681Z,99.90
2023-02-12T19:29:44.706Z,99.90
2023-02-12T19:32:15.241Z,99.90
2023-02-12T19:34:45.648Z,99.90
2023-02-12T19:37:15.180Z,99.90
2023-02-12T19:39:44.088Z,99.90
2023-02-12T19:42:15.032Z,99.90
2023-02-12T19:44:44.572Z,99.90
2023-02-12T19:47:15.626Z,99.90
2023-02-12T19:49:44.552Z,99.90
2023-02-12T19:52:13.337Z,99.90
2023-02-12T19:54:42.189Z,99.90
2023-02-12T19:57:13.481Z,99.90
2023-02-12T19:59:42.712Z,99.90
2023-02-12T20:02:13.535Z,99.90
2023-02-12T20:04:42.623Z,99.90
2023-02-12T20:07:11.611Z,99.90
2023-02-12T20:09:41.241Z,99.90
2023-02-12T20:12:10.058Z,99.90
2023-02-12T20:14:38.980Z,99.90
2023-02-12T20:17:07.842Z,99.90
2023-02-12T20:19:38.229Z,99.90
2023-02-12T20:22:06.989Z,99.90
2023-02-12T20:24:36.351Z,99.90
2023-02-12T20:27:05.586Z,99.90
2023-02-12T20:29:34.465Z,99.90
2023-02-12T20:32:03.298Z,99.90
2023-02-12T20:34:42.488Z,99.90
2023-02-12T20:37:20.075Z,99.90
2023-02-12T20:39:49.262Z,99.90
2023-02-12T20:42:18.571Z,99.90
2023-02-12T20:44:47.374Z,99.90
2023-02-12T20:47:16.158Z,99.90
2023-02-12T20:49:44.889Z,99.90
2023-02-12T20:52:13.932Z,99.90
2023-02-12T20:54:45.473Z,99.90
2023-02-12T20:57:15.286Z,99.90
2023-02-12T20:59:44.082Z,99.90
2023-02-12T21:02:13.458Z,99.90
2023-02-12T21:04:42.376Z,99.90
2023-02-12T21:07:11.275Z,99.90
2023-02-12T21:09:40.321Z,99.90
2023-02-12T21:12:10.722Z,99.90
2023-02-12T21:14:39.760Z,99.90
2023-02-12T21:17:08.507Z,99.90
2023-02-12T21:19:37.328Z,99.90
2023-02-12T21:22:06.102Z,99.90
2023-02-12T21:24:35.299Z,99.90
2023-02-12T21:27:04.027Z,99.90
2023-02-12T21:29:34.305Z,99.90
2023-02-12T21:32:03.259Z,99.90
2023-02-12T21:34:32.106Z,99.90
2023-02-12T21:37:00.828Z,99.90
2023-02-12T21:39:30.059Z,99.90
2023-02-12T21:42:02.428Z,99.90
2023-02-12T21:44:35.441Z,99.90
2023-02-12T21:47:05.017Z,99.90
2023-02-12T21:49:33.924Z,99.90
2023-02-12T21:52:06.697Z,99.90
2023-02-12T21:54:35.937Z,99.90
2023-02-12T21:57:05.174Z,99.90
2023-02-12T21:59:35.809Z,99.90
2023-02-12T22:02:05.309Z,99.90
2023-02-12T22:04:34.257Z,99.90
2023-02-12T22:07:03.575Z,99.90
2023-02-12T22:09:32.786Z,99.90
2023-02-12T22:12:01.714Z,99.90
2023-02-12T22:14:31.039Z,99.90
2023-02-12T22:17:01.878Z,99.90
2023-02-12T22:19:31.013Z,99.90
2023-02-12T22:22:00.090Z,99.90
2023-02-12T22:24:29.006Z,99.90
2023-02-12T22:26:57.942Z,99.90
2023-02-12T22:29:26.693Z,99.90
2023-02-12T22:31:55.756Z,99.90
2023-02-12T22:34:26.116Z,99.90
2023-02-12T22:36:54.998Z,99.90
2023-02-12T22:39:23.752Z,99.90
2023-02-12T22:41:52.494Z,99.90
2023-02-12T22:44:21.514Z,99.90
2023-02-12T22:46:50.629Z,99.90
2023-02-12T22:49:19.961Z,99.90
2023-02-12T22:51:50.270Z,99.90
2023-02-12T22:54:20.777Z,99.90
2023-02-12T22:56:52.882Z,99.90
2023-02-12T22:59:21.800Z,99.90
2023-02-12T23:01:50.700Z,99.90
2023-02-12T23:04:20.654Z,99.90
2023-02-12T23:06:50.984Z,99.90
2023-02-12T23:09:20.233Z,99.90
2023-02-12T23:11:49.670Z,99.90
2023-02-12T23:14:19.105Z,99.90
2023-02-12T23:16:48.848Z,99.90
2023-02-12T23:19:17.959Z,99.90
2023-02-12T23:21:46.884Z,99.90
2023-02-12T23:24:17.318Z,99.90
2023-02-12T23:26:46.257Z,99.90
2023-02-12T23:29:15.214Z,99.90
2023-02-12T23:31:44.218Z,99.90
2023-02-12T23:34:13.058Z,99.90
2023-02-12T23:36:41.798Z,99.90
2023-02-12T23:39:13.982Z,99.90
2023-02-12T23:41:44.286Z,99.90
2023-02-12T23:44:13.438Z,99.90
2023-02-12T23:46:42.385Z,99.90
2023-02-12T23:49:11.430Z,99.90
2023-02-12T23:51:40.272Z,99.90
2023-02-12T23:54:09.074Z,99.90
2023-02-12T23:56:38.218Z,99.90
2023-02-12T23:59:09.245Z,99.90
